Buoy 16575

sailwx.info

Track history (hours):
 
Tides and Currents Weather Stations Pressure Air Temp Water Temp Dewpoint Dewpoint Depression Visibility Wind Speed Wind Dir Waves Ship Positions

Drifting buoy 16575

Last reported at 2014-Sep-18 22:00 UTC. Time now 2014-Sep-18 23:45 UTC.
Position S 26°49' E 061°13'.

Barometer 1025.4 mb
Water temperature 21.2 ° C

Date/timePositionNaut miles runAvg speedWind from/ knotsBaromVisibWave heightAir tempDewpointWater temp
2014-Sep-18 22:00S 26°49' E 061°13'1 1.3 1025.4 21.2
2014-Sep-18 21:00S 26°50' E 061°13'0 0.1 1026.2 21.1
2014-Sep-18 20:00S 26°50' E 061°13'1 0.5 1026.0 21.0
2014-Sep-18 19:00S 26°51' E 061°14'1 0.7 1026.2 21.0
2014-Sep-18 17:00S 26°52' E 061°15'0 0.0 1025.1 21.0
2014-Sep-18 16:00S 26°52' E 061°15'2 1.1 1026.7 21.1
2014-Sep-18 14:00S 26°53' E 061°17'2 1.6 1020.7 21.1
2014-Sep-18 13:00S 26°55' E 061°17'0 0.0 1022.1 21.1
2014-Sep-18 12:00S 26°55' E 061°17'0 0.2 1020.3 21.1
2014-Sep-18 11:00S 26°55' E 061°17'1 0.4 1022.7 21.1
2014-Sep-18 09:00S 26°56' E 061°17'1 0.2 1017.8 21.1
2014-Sep-18 06:00S 26°56' E 061°18'1 0.6 1026.7 21.0
2014-Sep-18 05:00S 26°57' E 061°18'0 0.3 1028.5 21.0
2014-Sep-18 04:00S 26°57' E 061°18'1 0.5 1025.7 21.0
2014-Sep-18 02:00S 26°58' E 061°18'0 0.1 1022.8 21.0
2014-Sep-18 01:00S 26°58' E 061°18'0 0.4 1022.4 21.0
2014-Sep-18 00:00S 26°59' E 061°18'0 0.0 1022.3 21.1
2014-Sep-17 22:00S 26°59' E 061°18'0 0.1 1023.3 21.1
2014-Sep-17 20:00S 26°59' E 061°19'1 0.6 1023.5 21.2
2014-Sep-17 18:00S 26°59' E 061°20'0 0.3 1022.5 21.4
2014-Sep-17 17:00S 26°60' E 061°19'1 0.4 1022.7 21.5
2014-Sep-17 14:00S 27°01' E 061°20'1 0.6 1009.9 21.8
2014-Sep-17 13:00S 27°01' E 061°21'1 0.3 1009.2 21.9
2014-Sep-17 11:00S 27°02' E 061°20'0 0.0 1020.7 22.3
2014-Sep-17 10:00S 27°02' E 061°20'0 0.0 1017.4 22.3
2014-Sep-17 09:00S 27°02' E 061°20'1 0.4 1023.1 22.2
2014-Sep-17 06:00S 27°01' E 061°21'1 0.7 1036.1 21.1
2014-Sep-17 05:00S 27°02' E 061°21'1 1.4 1028.0 21.0
2014-Sep-17 04:00S 27°03' E 061°22'0 0.4 1026.4 21.0
2014-Sep-17 03:00S 27°03' E 061°23'1 1.0 1024.5 20.9
2014-Sep-17 02:00S 27°04' E 061°22'0 0.4 1022.8 20.9
2014-Sep-17 01:00S 27°04' E 061°23'1 0.6 1022.2 20.9
2014-Sep-17 00:00S 27°04' E 061°23'0 0.0 1021.7 21.0
2014-Sep-16 23:00S 27°04' E 061°23'0 0.2 1021.8 21.0
2014-Sep-16 22:00S 27°05' E 061°23'1 0.6 1022.5 21.0
2014-Sep-16 20:00S 27°06' E 061°24'0 0.0 1023.5 21.0
2014-Sep-16 19:00S 27°06' E 061°24'0 0.0 1023.2 21.0
2014-Sep-16 18:00S 27°06' E 061°24'1 1.4 1022.6 21.0
2014-Sep-16 17:00S 27°07' E 061°25'0 0.0 1023.0 21.0
2014-Sep-16 16:00S 27°07' E 061°25'1 0.8 1022.6 21.0
2014-Sep-16 15:00S 27°07' E 061°24'1 0.3 1021.3 21.1
2014-Sep-16 13:00S 27°08' E 061°25'1 0.3 1008.4 21.1
2014-Sep-16 11:00S 27°08' E 061°25'0 0.2 1020.9 21.1
2014-Sep-16 10:00S 27°08' E 061°25'2 1.8 1024.5 21.1
2014-Sep-16 09:00S 27°09' E 061°27'1 0.3 1023.1 21.1
2014-Sep-16 05:00S 27°10' E 061°28'1 0.7 1025.5 21.0
2014-Sep-16 04:00S 27°10' E 061°27'1 0.9 1028.2 21.0
2014-Sep-16 03:00S 27°11' E 061°28'1 0.4 1026.3 21.0
2014-Sep-16 01:00S 27°11' E 061°28'1 0.6 1023.5 21.0
2014-Sep-16 00:00S 27°12' E 061°28'0 0.2 1024.7 21.0
2014-Sep-15 23:00S 27°12' E 061°28'0 0.0 1024.8 21.0
2014-Sep-15 22:00S 27°12' E 061°28'2 0.4 1024.1 21.0
2014-Sep-15 18:00S 27°13' E 061°29'1 0.6 1026.2 20.9
2014-Sep-15 17:00S 27°13' E 061°30'0 0.0 1024.7 21.0
2014-Sep-15 16:00S 27°13' E 061°30'2 0.9 1024.9 20.9
2014-Sep-15 14:00S 27°15' E 061°30'0 0.4 1021.6 21.0
2014-Sep-15 13:00S 27°15' E 061°30'1 0.8 1022.3 21.1
2014-Sep-15 12:00S 27°16' E 061°30'0 0.2 1020.2 21.1
2014-Sep-15 11:00S 27°16' E 061°31'0 0.5 1020.7 21.1
2014-Sep-15 10:00S 27°16' E 061°31'2 2.2 1027.5 21.1
2014-Sep-15 09:00S 27°18' E 061°32'0 0.0 1023.5 21.1
2014-Sep-15 06:00S 27°18' E 061°32'4 0.8 1023.2 21.0
2014-Sep-15 01:00S 27°22' E 061°31'1 1.0 1022.7 21.0
2014-Sep-15 00:00S 27°23' E 061°31'0 0.4 1022.7 21.0
2014-Sep-14 23:00S 27°23' E 061°30'3 1.5 1022.1 20.9
2014-Sep-14 21:00S 27°25' E 061°29'0 0.0 1024.0 20.8
2014-Sep-14 20:00S 27°25' E 061°29'0 0.4 1022.8 20.8
2014-Sep-14 19:00S 27°25' E 061°28'1 0.9 1022.0 20.8
2014-Sep-14 18:00S 27°26' E 061°28'2 1.9 1022.7 20.9
2014-Sep-14 17:00S 27°27' E 061°27'3 1.1 1022.4 20.9
2014-Sep-14 14:00S 27°30' E 061°24'3 1.6 1019.9 21.0
2014-Sep-14 12:00S 27°32' E 061°22'0 0.0 1019.8 21.1
2014-Sep-14 11:00S 27°32' E 061°22'3 2.6 1019.0 21.1
2014-Sep-14 10:00S 27°33' E 061°19'0 0.0 1016.1 21.1
2014-Sep-14 09:00S 27°33' E 061°19'6 2.1 1020.0 21.0
2014-Sep-14 06:00S 27°37' E 061°13'1 1.5 1021.3 20.9
2014-Sep-14 05:00S 27°37' E 061°12'1 1.0 1023.7 20.9
2014-Sep-14 04:00S 27°38' E 061°11'1 1.4 1023.2 20.8
2014-Sep-14 03:00S 27°39' E 061°10'4 1.8 1023.0 20.8
2014-Sep-14 01:00S 27°41' E 061°06'3 2.8 1019.2 20.8
2014-Sep-14 00:00S 27°42' E 061°04'1 1.2 1020.1 20.8
2014-Sep-13 23:00S 27°43' E 061°03'1 1.0 1020.0 20.8
2014-Sep-13 22:00S 27°43' E 061°02'1 1.3 1020.0 20.8
2014-Sep-13 21:00S 27°44' E 061°00'3 3.0 1020.5 20.9
2014-Sep-13 20:00S 27°45' E 060°57'3 3.2 1021.0 20.9
2014-Sep-13 19:00S 27°46' E 060°54'0 0.0 1021.2 21.0
2014-Sep-13 18:00S 27°46' E 060°54'1 1.2 1021.8 21.0
2014-Sep-13 17:00S 27°46' E 060°52'3 1.6 1021.4 21.0
2014-Sep-13 15:00S 27°48' E 060°49'1 1.2 1020.8 21.0
2014-Sep-13 14:00S 27°49' E 060°48'7 3.7 1019.1 21.1
2014-Sep-13 12:00S 27°52' E 060°40'0 0.0 1017.9 21.1
2014-Sep-13 11:00S 27°52' E 060°40'6 1.2 1019.7 21.1
2014-Sep-13 06:00S 27°53' E 060°34'1 0.8 1023.5 21.0
2014-Sep-13 05:00S 27°53' E 060°33'1 1.4 1023.9 21.0
2014-Sep-13 04:00S 27°53' E 060°31'1 0.7 1025.1 21.0
2014-Sep-13 02:00S 27°53' E 060°30'1 1.0 1023.1 21.0
2014-Sep-13 01:00S 27°54' E 060°29'0 0.4 1022.7 21.0
2014-Sep-13 00:00S 27°54' E 060°29'2 1.7 1022.4 21.0
2014-Sep-12 23:00S 27°56' E 060°28'0 0.2 1022.8 21.0
2014-Sep-12 22:00S 27°56' E 060°28'2 1.7 1023.4 21.0
2014-Sep-12 21:00S 27°56' E 060°26'1 0.9 1022.8 20.9
2014-Sep-12 20:00S 27°57' E 060°25'0 0.0 1024.1 20.9
2014-Sep-12 18:00S 27°57' E 060°25'1 0.8 1023.4 21.0
2014-Sep-12 17:00S 27°57' E 060°24'2 1.8 1023.8 21.0
2014-Sep-12 16:00S 27°57' E 060°22'0 0.0 1023.3 21.0
2014-Sep-12 15:00S 27°57' E 060°22'0 0.1 1021.9 21.0
2014-Sep-12 14:00S 27°57' E 060°22'0 0.1 1018.5 21.0
2014-Sep-12 13:00S 27°57' E 060°22'1 1.1 1017.2 21.0
2014-Sep-12 12:00S 27°57' E 060°21'0 0.1 1022.1 21.1
2014-Sep-12 10:00S 27°57' E 060°21'1 0.9 1019.5 21.0
2014-Sep-12 09:00S 27°57' E 060°20'0 0.4 1019.0 21.0
2014-Sep-12 08:00S 27°57' E 060°20'0 0.1 1031.4 21.0
2014-Sep-12 06:00S 27°58' E 060°19'0 0.5 1030.3 20.8
2014-Sep-12 05:00S 27°58' E 060°19'1 0.6 1028.1 20.8
2014-Sep-12 04:00S 27°58' E 060°19'0 0.0 1028.5 20.8
2014-Sep-12 02:00S 27°58' E 060°19'1 1.0 1022.1 20.8
2014-Sep-12 01:00S 27°59' E 060°18'0 0.4 1021.6 20.8
2014-Sep-12 00:00S 27°59' E 060°18'2 1.1 1021.5 20.8
2014-Sep-11 22:00S 28°00' E 060°16'0 0.0 1021.5 20.8
2014-Sep-11 21:00S 28°00' E 060°16'3 2.5 1022.3 20.8
2014-Sep-11 20:00S 28°02' E 060°14'1 0.4 1021.6 20.8
2014-Sep-11 18:00S 28°02' E 060°13'1 0.8 1022.0 20.8
2014-Sep-11 17:00S 28°03' E 060°12'2 1.1 1021.9 20.8
2014-Sep-11 15:00S 28°04' E 060°10'0 0.1 1020.3 20.9
2014-Sep-11 14:00S 28°04' E 060°10'3 1.1 1018.6 21.0
2014-Sep-11 11:00S 28°04' E 060°06'0 0.0 1017.8 21.1
2014-Sep-11 10:00S 28°04' E 060°06'3 2.7 1020.9 21.1
2014-Sep-11 09:00S 28°05' E 060°03'3 2.7 1018.3 21.1
2014-Sep-11 08:00S 28°04' E 060°00'0 0.0 1021.5 21.1
2014-Sep-11 06:00S 28°04' E 060°00'2 0.8 1021.0 21.0
2014-Sep-11 04:00S 28°03' E 059°58'0 0.0 1022.7 21.0
2014-Sep-11 03:00S 28°03' E 059°58'0 0.4 1022.1 21.0
2014-Sep-11 02:00S 28°04' E 059°58'0 0.2 1019.6 21.0
2014-Sep-11 01:00S 28°04' E 059°58'0 0.2 1019.5 21.0
2014-Sep-11 00:00S 28°04' E 059°58'2 0.9 1019.2 21.0
2014-Sep-10 22:00S 28°05' E 059°56'4 0.9 1021.6 21.1
2014-Sep-10 17:00S 28°05' E 059°51'2 1.9 1021.2 21.1
2014-Sep-10 16:00S 28°05' E 059°49'1 0.3 1020.9 21.2
2014-Sep-10 14:00S 28°04' E 059°48'0 0.1 1013.0 21.5
2014-Sep-10 11:00S 28°05' E 059°48'1 0.5 1019.6 21.9
2014-Sep-10 10:00S 28°05' E 059°48'0 0.0 1024.0 21.8
2014-Sep-10 09:00S 28°05' E 059°48'0 0.0 1027.6 21.5
2014-Sep-10 08:00S 28°05' E 059°48'1 0.4 1020.6 21.3
2014-Sep-10 06:00S 28°05' E 059°47'1 0.4 1031.2 21.2
2014-Sep-10 04:00S 28°04' E 059°46'0 0.4 1025.8 21.1
2014-Sep-10 03:00S 28°05' E 059°46'0 0.4 1026.1 21.1
2014-Sep-10 02:00S 28°05' E 059°46'1 0.8 1022.0 21.1
2014-Sep-10 01:00S 28°05' E 059°47'1 0.9 1020.3 21.1
2014-Sep-10 00:00S 28°06' E 059°47'0 0.0 1020.1 21.1
2014-Sep-09 23:00S 28°06' E 059°47'1 0.5 1020.9 21.1
2014-Sep-09 22:00S 28°06' E 059°47'1 1.4 1022.0 21.1
2014-Sep-09 21:00S 28°08' E 059°46'0 0.1 1020.2 21.0
2014-Sep-09 20:00S 28°08' E 059°46'1 1.2 1020.6 21.0
2014-Sep-09 19:00S 28°08' E 059°45'1 0.5 1021.1 21.0
2014-Sep-09 18:00S 28°09' E 059°45'3 1.5 1020.6 21.0
2014-Sep-09 16:00S 28°09' E 059°41'0 0.2 1020.2 21.0
2014-Sep-09 14:00S 28°09' E 059°41'1 1.1 1018.0 21.0
2014-Sep-09 13:00S 28°09' E 059°40'0 0.3 1018.7 21.0
2014-Sep-09 12:00S 28°09' E 059°40'1 0.8 1017.7 21.1
2014-Sep-09 11:00S 28°09' E 059°39'1 0.4 1018.7 21.1
2014-Sep-09 09:00S 28°09' E 059°38'0 0.0 1018.9 21.1
2014-Sep-09 08:00S 28°09' E 059°38'1 0.7 1024.0 21.1
2014-Sep-09 06:00S 28°08' E 059°37'1 0.7 1029.2 21.0
2014-Sep-09 05:00S 28°08' E 059°36'1 1.1 1026.9 21.0
2014-Sep-09 04:00S 28°08' E 059°35'0 0.0 1023.7 21.0
2014-Sep-09 03:00S 28°08' E 059°35'1 0.5 1026.0 21.0
2014-Sep-09 02:00S 28°07' E 059°35'0 0.4 1022.8 20.9
2014-Sep-09 01:00S 28°07' E 059°34'0 0.3 1022.8 21.0
2014-Sep-09 00:00S 28°07' E 059°34'0 0.4 1022.5 21.0
2014-Sep-08 23:00S 28°07' E 059°34'0 0.0 1024.0 21.0
2014-Sep-08 22:00S 28°07' E 059°34'   1023.8 21.0
Track history (hours):
 
Tides and Currents Weather Stations Pressure Air Temp Water Temp Dewpoint Dewpoint Depression Visibility Wind Speed Wind Dir Waves Ship Positions

Drifting buoy 16575

Last reported at 2014-Sep-18 22:00 UTC. Time now 2014-Sep-18 23:45 UTC.
Position S 26°49' E 061°13'.

Barometer 1025.4 mb
Water temperature 21.2 ° C

Date/timePositionNaut miles runAvg speedWind from/ knotsBaromVisibWave heightAir tempDewpointWater temp
2014-Sep-18 22:00S 26°49' E 061°13'1 1.3 1025.4 21.2
2014-Sep-18 21:00S 26°50' E 061°13'0 0.1 1026.2 21.1
2014-Sep-18 20:00S 26°50' E 061°13'1 0.5 1026.0 21.0
2014-Sep-18 19:00S 26°51' E 061°14'1 0.7 1026.2 21.0
2014-Sep-18 17:00S 26°52' E 061°15'0 0.0 1025.1 21.0
2014-Sep-18 16:00S 26°52' E 061°15'2 1.1 1026.7 21.1
2014-Sep-18 14:00S 26°53' E 061°17'2 1.6 1020.7 21.1
2014-Sep-18 13:00S 26°55' E 061°17'0 0.0 1022.1 21.1
2014-Sep-18 12:00S 26°55' E 061°17'0 0.2 1020.3 21.1
2014-Sep-18 11:00S 26°55' E 061°17'1 0.4 1022.7 21.1
2014-Sep-18 09:00S 26°56' E 061°17'1 0.2 1017.8 21.1
2014-Sep-18 06:00S 26°56' E 061°18'1 0.6 1026.7 21.0
2014-Sep-18 05:00S 26°57' E 061°18'0 0.3 1028.5 21.0
2014-Sep-18 04:00S 26°57' E 061°18'1 0.5 1025.7 21.0
2014-Sep-18 02:00S 26°58' E 061°18'0 0.1 1022.8 21.0
2014-Sep-18 01:00S 26°58' E 061°18'0 0.4 1022.4 21.0
2014-Sep-18 00:00S 26°59' E 061°18'0 0.0 1022.3 21.1
2014-Sep-17 22:00S 26°59' E 061°18'0 0.1 1023.3 21.1
2014-Sep-17 20:00S 26°59' E 061°19'1 0.6 1023.5 21.2
2014-Sep-17 18:00S 26°59' E 061°20'0 0.3 1022.5 21.4
2014-Sep-17 17:00S 26°60' E 061°19'1 0.4 1022.7 21.5
2014-Sep-17 14:00S 27°01' E 061°20'1 0.6 1009.9 21.8
2014-Sep-17 13:00S 27°01' E 061°21'1 0.3 1009.2 21.9
2014-Sep-17 11:00S 27°02' E 061°20'0 0.0 1020.7 22.3
2014-Sep-17 10:00S 27°02' E 061°20'0 0.0 1017.4 22.3
2014-Sep-17 09:00S 27°02' E 061°20'1 0.4 1023.1 22.2
2014-Sep-17 06:00S 27°01' E 061°21'1 0.7 1036.1 21.1
2014-Sep-17 05:00S 27°02' E 061°21'1 1.4 1028.0 21.0
2014-Sep-17 04:00S 27°03' E 061°22'0 0.4 1026.4 21.0
2014-Sep-17 03:00S 27°03' E 061°23'1 1.0 1024.5 20.9
2014-Sep-17 02:00S 27°04' E 061°22'0 0.4 1022.8 20.9
2014-Sep-17 01:00S 27°04' E 061°23'1 0.6 1022.2 20.9
2014-Sep-17 00:00S 27°04' E 061°23'0 0.0 1021.7 21.0
2014-Sep-16 23:00S 27°04' E 061°23'0 0.2 1021.8 21.0
2014-Sep-16 22:00S 27°05' E 061°23'1 0.6 1022.5 21.0
2014-Sep-16 20:00S 27°06' E 061°24'0 0.0 1023.5 21.0
2014-Sep-16 19:00S 27°06' E 061°24'0 0.0 1023.2 21.0
2014-Sep-16 18:00S 27°06' E 061°24'1 1.4 1022.6 21.0
2014-Sep-16 17:00S 27°07' E 061°25'0 0.0 1023.0 21.0
2014-Sep-16 16:00S 27°07' E 061°25'1 0.8 1022.6 21.0
2014-Sep-16 15:00S 27°07' E 061°24'1 0.3 1021.3 21.1
2014-Sep-16 13:00S 27°08' E 061°25'1 0.3 1008.4 21.1
2014-Sep-16 11:00S 27°08' E 061°25'0 0.2 1020.9 21.1
2014-Sep-16 10:00S 27°08' E 061°25'2 1.8 1024.5 21.1
2014-Sep-16 09:00S 27°09' E 061°27'1 0.3 1023.1 21.1
2014-Sep-16 05:00S 27°10' E 061°28'1 0.7 1025.5 21.0
2014-Sep-16 04:00S 27°10' E 061°27'1 0.9 1028.2 21.0
2014-Sep-16 03:00S 27°11' E 061°28'1 0.4 1026.3 21.0
2014-Sep-16 01:00S 27°11' E 061°28'1 0.6 1023.5 21.0
2014-Sep-16 00:00S 27°12' E 061°28'0 0.2 1024.7 21.0
2014-Sep-15 23:00S 27°12' E 061°28'0 0.0 1024.8 21.0
2014-Sep-15 22:00S 27°12' E 061°28'2 0.4 1024.1 21.0
2014-Sep-15 18:00S 27°13' E 061°29'1 0.6 1026.2 20.9
2014-Sep-15 17:00S 27°13' E 061°30'0 0.0 1024.7 21.0
2014-Sep-15 16:00S 27°13' E 061°30'2 0.9 1024.9 20.9
2014-Sep-15 14:00S 27°15' E 061°30'0 0.4 1021.6 21.0
2014-Sep-15 13:00S 27°15' E 061°30'1 0.8 1022.3 21.1
2014-Sep-15 12:00S 27°16' E 061°30'0 0.2 1020.2 21.1
2014-Sep-15 11:00S 27°16' E 061°31'0 0.5 1020.7 21.1
2014-Sep-15 10:00S 27°16' E 061°31'2 2.2 1027.5 21.1
2014-Sep-15 09:00S 27°18' E 061°32'0 0.0 1023.5 21.1
2014-Sep-15 06:00S 27°18' E 061°32'4 0.8 1023.2 21.0
2014-Sep-15 01:00S 27°22' E 061°31'1 1.0 1022.7 21.0
2014-Sep-15 00:00S 27°23' E 061°31'0 0.4 1022.7 21.0
2014-Sep-14 23:00S 27°23' E 061°30'3 1.5 1022.1 20.9
2014-Sep-14 21:00S 27°25' E 061°29'0 0.0 1024.0 20.8
2014-Sep-14 20:00S 27°25' E 061°29'0 0.4 1022.8 20.8
2014-Sep-14 19:00S 27°25' E 061°28'1 0.9 1022.0 20.8
2014-Sep-14 18:00S 27°26' E 061°28'2 1.9 1022.7 20.9
2014-Sep-14 17:00S 27°27' E 061°27'3 1.1 1022.4 20.9
2014-Sep-14 14:00S 27°30' E 061°24'3 1.6 1019.9 21.0
2014-Sep-14 12:00S 27°32' E 061°22'0 0.0 1019.8 21.1
2014-Sep-14 11:00S 27°32' E 061°22'3 2.6 1019.0 21.1
2014-Sep-14 10:00S 27°33' E 061°19'0 0.0 1016.1 21.1
2014-Sep-14 09:00S 27°33' E 061°19'6 2.1 1020.0 21.0
2014-Sep-14 06:00S 27°37' E 061°13'1 1.5 1021.3 20.9
2014-Sep-14 05:00S 27°37' E 061°12'1 1.0 1023.7 20.9
2014-Sep-14 04:00S 27°38' E 061°11'1 1.4 1023.2 20.8
2014-Sep-14 03:00S 27°39' E 061°10'4 1.8 1023.0 20.8
2014-Sep-14 01:00S 27°41' E 061°06'3 2.8 1019.2 20.8
2014-Sep-14 00:00S 27°42' E 061°04'1 1.2 1020.1 20.8
2014-Sep-13 23:00S 27°43' E 061°03'1 1.0 1020.0 20.8
2014-Sep-13 22:00S 27°43' E 061°02'1 1.3 1020.0 20.8
2014-Sep-13 21:00S 27°44' E 061°00'3 3.0 1020.5 20.9
2014-Sep-13 20:00S 27°45' E 060°57'3 3.2 1021.0 20.9
2014-Sep-13 19:00S 27°46' E 060°54'0 0.0 1021.2 21.0
2014-Sep-13 18:00S 27°46' E 060°54'1 1.2 1021.8 21.0
2014-Sep-13 17:00S 27°46' E 060°52'3 1.6 1021.4 21.0
2014-Sep-13 15:00S 27°48' E 060°49'1 1.2 1020.8 21.0
2014-Sep-13 14:00S 27°49' E 060°48'7 3.7 1019.1 21.1
2014-Sep-13 12:00S 27°52' E 060°40'0 0.0 1017.9 21.1
2014-Sep-13 11:00S 27°52' E 060°40'6 1.2 1019.7 21.1
2014-Sep-13 06:00S 27°53' E 060°34'1 0.8 1023.5 21.0
2014-Sep-13 05:00S 27°53' E 060°33'1 1.4 1023.9 21.0
2014-Sep-13 04:00S 27°53' E 060°31'1 0.7 1025.1 21.0
2014-Sep-13 02:00S 27°53' E 060°30'1 1.0 1023.1 21.0
2014-Sep-13 01:00S 27°54' E 060°29'0 0.4 1022.7 21.0
2014-Sep-13 00:00S 27°54' E 060°29'2 1.7 1022.4 21.0
2014-Sep-12 23:00S 27°56' E 060°28'0 0.2 1022.8 21.0
2014-Sep-12 22:00S 27°56' E 060°28'2 1.7 1023.4 21.0
2014-Sep-12 21:00S 27°56' E 060°26'1 0.9 1022.8 20.9
2014-Sep-12 20:00S 27°57' E 060°25'0 0.0 1024.1 20.9
2014-Sep-12 18:00S 27°57' E 060°25'1 0.8 1023.4 21.0
2014-Sep-12 17:00S 27°57' E 060°24'2 1.8 1023.8 21.0
2014-Sep-12 16:00S 27°57' E 060°22'0 0.0 1023.3 21.0
2014-Sep-12 15:00S 27°57' E 060°22'0 0.1 1021.9 21.0
2014-Sep-12 14:00S 27°57' E 060°22'0 0.1 1018.5 21.0
2014-Sep-12 13:00S 27°57' E 060°22'1 1.1 1017.2 21.0
2014-Sep-12 12:00S 27°57' E 060°21'0 0.1 1022.1 21.1
2014-Sep-12 10:00S 27°57' E 060°21'1 0.9 1019.5 21.0
2014-Sep-12 09:00S 27°57' E 060°20'0 0.4 1019.0 21.0
2014-Sep-12 08:00S 27°57' E 060°20'0 0.1 1031.4 21.0
2014-Sep-12 06:00S 27°58' E 060°19'0 0.5 1030.3 20.8
2014-Sep-12 05:00S 27°58' E 060°19'1 0.6 1028.1 20.8
2014-Sep-12 04:00S 27°58' E 060°19'0 0.0 1028.5 20.8
2014-Sep-12 02:00S 27°58' E 060°19'1 1.0 1022.1 20.8
2014-Sep-12 01:00S 27°59' E 060°18'0 0.4 1021.6 20.8
2014-Sep-12 00:00S 27°59' E 060°18'2 1.1 1021.5 20.8
2014-Sep-11 22:00S 28°00' E 060°16'0 0.0 1021.5 20.8
2014-Sep-11 21:00S 28°00' E 060°16'3 2.5 1022.3 20.8
2014-Sep-11 20:00S 28°02' E 060°14'1 0.4 1021.6 20.8
2014-Sep-11 18:00S 28°02' E 060°13'1 0.8 1022.0 20.8
2014-Sep-11 17:00S 28°03' E 060°12'2 1.1 1021.9 20.8
2014-Sep-11 15:00S 28°04' E 060°10'0 0.1 1020.3 20.9
2014-Sep-11 14:00S 28°04' E 060°10'3 1.1 1018.6 21.0
2014-Sep-11 11:00S 28°04' E 060°06'0 0.0 1017.8 21.1
2014-Sep-11 10:00S 28°04' E 060°06'3 2.7 1020.9 21.1
2014-Sep-11 09:00S 28°05' E 060°03'3 2.7 1018.3 21.1
2014-Sep-11 08:00S 28°04' E 060°00'0 0.0 1021.5 21.1
2014-Sep-11 06:00S 28°04' E 060°00'2 0.8 1021.0 21.0
2014-Sep-11 04:00S 28°03' E 059°58'0 0.0 1022.7 21.0
2014-Sep-11 03:00S 28°03' E 059°58'0 0.4 1022.1 21.0
2014-Sep-11 02:00S 28°04' E 059°58'0 0.2 1019.6 21.0
2014-Sep-11 01:00S 28°04' E 059°58'0 0.2 1019.5 21.0
2014-Sep-11 00:00S 28°04' E 059°58'2 0.9 1019.2 21.0
2014-Sep-10 22:00S 28°05' E 059°56'4 0.9 1021.6 21.1
2014-Sep-10 17:00S 28°05' E 059°51'2 1.9 1021.2 21.1
2014-Sep-10 16:00S 28°05' E 059°49'1 0.3 1020.9 21.2
2014-Sep-10 14:00S 28°04' E 059°48'0 0.1 1013.0 21.5
2014-Sep-10 11:00S 28°05' E 059°48'1 0.5 1019.6 21.9
2014-Sep-10 10:00S 28°05' E 059°48'0 0.0 1024.0 21.8
2014-Sep-10 09:00S 28°05' E 059°48'0 0.0 1027.6 21.5
2014-Sep-10 08:00S 28°05' E 059°48'1 0.4 1020.6 21.3
2014-Sep-10 06:00S 28°05' E 059°47'1 0.4 1031.2 21.2
2014-Sep-10 04:00S 28°04' E 059°46'0 0.4 1025.8 21.1
2014-Sep-10 03:00S 28°05' E 059°46'0 0.4 1026.1 21.1
2014-Sep-10 02:00S 28°05' E 059°46'1 0.8 1022.0 21.1
2014-Sep-10 01:00S 28°05' E 059°47'1 0.9 1020.3 21.1
2014-Sep-10 00:00S 28°06' E 059°47'0 0.0 1020.1 21.1
2014-Sep-09 23:00S 28°06' E 059°47'1 0.5 1020.9 21.1
2014-Sep-09 22:00S 28°06' E 059°47'1 1.4 1022.0 21.1
2014-Sep-09 21:00S 28°08' E 059°46'0 0.1 1020.2 21.0
2014-Sep-09 20:00S 28°08' E 059°46'1 1.2 1020.6 21.0
2014-Sep-09 19:00S 28°08' E 059°45'1 0.5 1021.1 21.0
2014-Sep-09 18:00S 28°09' E 059°45'3 1.5 1020.6 21.0
2014-Sep-09 16:00S 28°09' E 059°41'0 0.2 1020.2 21.0
2014-Sep-09 14:00S 28°09' E 059°41'1 1.1 1018.0 21.0
2014-Sep-09 13:00S 28°09' E 059°40'0 0.3 1018.7 21.0
2014-Sep-09 12:00S 28°09' E 059°40'1 0.8 1017.7 21.1
2014-Sep-09 11:00S 28°09' E 059°39'1 0.4 1018.7 21.1
2014-Sep-09 09:00S 28°09' E 059°38'0 0.0 1018.9 21.1
2014-Sep-09 08:00S 28°09' E 059°38'1 0.7 1024.0 21.1
2014-Sep-09 06:00S 28°08' E 059°37'1 0.7 1029.2 21.0
2014-Sep-09 05:00S 28°08' E 059°36'1 1.1 1026.9 21.0
2014-Sep-09 04:00S 28°08' E 059°35'0 0.0 1023.7 21.0
2014-Sep-09 03:00S 28°08' E 059°35'1 0.5 1026.0 21.0
2014-Sep-09 02:00S 28°07' E 059°35'0 0.4 1022.8 20.9
2014-Sep-09 01:00S 28°07' E 059°34'0 0.3 1022.8 21.0
2014-Sep-09 00:00S 28°07' E 059°34'0 0.4 1022.5 21.0
2014-Sep-08 23:00S 28°07' E 059°34'0 0.0 1024.0 21.0
2014-Sep-08 22:00S 28°07' E 059°34'   1023.8 21.0

Dump ship's entire track history